createdAt,value
2019-04-27T00:01:10.598Z,65.60
2019-04-27T00:04:35.983Z,66.10
2019-04-27T00:07:43.966Z,66.00
2019-04-27T00:11:13.696Z,65.50
2019-04-27T00:14:18.193Z,63.50
2019-04-27T00:17:48.651Z,64.50
2019-04-27T00:21:04.436Z,64.60
2019-04-27T00:24:08.329Z,64.00
2019-04-27T00:27:13.376Z,64.30
2019-04-27T00:30:18.141Z,64.70
2019-04-27T00:33:23.775Z,64.90
2019-04-27T00:36:35.200Z,64.90
2019-04-27T00:39:47.462Z,64.60
2019-04-27T00:42:51.510Z,64.50
2019-04-27T00:45:55.262Z,63.00
2019-04-27T00:48:59.166Z,63.30
2019-04-27T00:52:03.698Z,64.70
2019-04-27T00:55:08.486Z,63.70
2019-04-27T00:58:29.395Z,62.90
2019-04-27T01:01:37.734Z,63.00
2019-04-27T01:04:42.842Z,63.00
2019-04-27T01:07:46.622Z,62.90
2019-04-27T01:10:50.394Z,63.00
2019-04-27T01:13:54.146Z,64.10
2019-04-27T01:16:59.527Z,64.30
2019-04-27T01:20:03.567Z,64.80
2019-04-27T01:23:08.924Z,64.00
2019-04-27T01:26:41.351Z,63.30
2019-04-27T01:29:45.062Z,63.90
2019-04-27T01:32:49.414Z,64.60
2019-04-27T01:35:53.150Z,65.10
2019-04-27T01:38:57.058Z,65.00
2019-04-27T01:42:01.238Z,65.60
2019-04-27T01:45:05.603Z,65.10
2019-04-27T01:48:22.515Z,65.00
2019-04-27T01:51:15.029Z,64.50
2019-04-27T01:54:20.642Z,65.20
2019-04-27T01:57:24.347Z,63.90
2019-04-27T02:00:52.325Z,65.20
2019-04-27T02:04:06.216Z,64.90
2019-04-27T02:07:09.927Z,64.30
2019-04-27T02:10:15.029Z,63.60
2019-04-27T02:13:19.350Z,64.30
2019-04-27T02:16:23.065Z,63.80
2019-04-27T02:19:26.881Z,64.80
2019-04-27T02:22:31.178Z,64.20
2019-04-27T02:25:35.558Z,63.80
2019-04-27T02:28:50.593Z,63.00
2019-04-27T02:32:03.752Z,63.30
2019-04-27T02:35:10.491Z,63.00
2019-04-27T02:38:14.404Z,63.00
2019-04-27T02:41:19.917Z,61.30
2019-04-27T02:44:30.130Z,60.50
2019-04-27T02:47:34.001Z,60.20
2019-04-27T02:50:39.883Z,60.10
2019-04-27T02:53:56.476Z,60.50
2019-04-27T02:57:00.290Z,60.00
2019-04-27T03:00:05.293Z,61.70
2019-04-27T03:03:10.741Z,61.50
2019-04-27T03:06:14.754Z,61.50
2019-04-27T03:09:20.517Z,61.60
2019-04-27T03:12:29.396Z,60.30
2019-04-27T03:15:43.442Z,60.80
2019-04-27T03:19:18.054Z,60.50
2019-04-27T03:22:20.066Z,58.60
2019-04-27T03:25:44.070Z,58.60
2019-04-27T03:28:50.095Z,58.40
2019-04-27T03:31:54.422Z,58.50
2019-04-27T03:35:02.805Z,59.30
2019-04-27T03:38:04.006Z,58.30
2019-04-27T03:41:09.543Z,59.00
2019-04-27T03:44:13.680Z,58.90
2019-04-27T03:47:19.514Z,58.90
2019-04-27T03:50:30.353Z,59.80
2019-04-27T03:53:41.048Z,59.80
2019-04-27T03:56:47.666Z,60.40
2019-04-27T04:00:02.566Z,59.80
2019-04-27T04:03:06.502Z,60.30
2019-04-27T04:06:10.912Z,60.10
2019-04-27T04:09:14.782Z,60.20
2019-04-27T04:12:30.049Z,60.50
2019-04-27T04:15:40.016Z,60.90
2019-04-27T04:19:00.357Z,60.70
2019-04-27T04:22:03.737Z,60.70
2019-04-27T04:25:10.478Z,60.60
2019-04-27T04:28:13.254Z,59.90
2019-04-27T04:31:16.935Z,60.20
2019-04-27T04:34:20.691Z,60.60
2019-04-27T04:37:24.383Z,60.40
2019-04-27T04:40:33.968Z,59.70
2019-04-27T04:43:49.061Z,60.30
2019-04-27T04:47:03.093Z,60.50
2019-04-27T04:50:12.037Z,60.20
2019-04-27T04:53:13.013Z,60.60
2019-04-27T04:56:18.770Z,60.40
2019-04-27T04:59:22.190Z,61.20
2019-04-27T05:02:25.877Z,60.50
2019-04-27T05:05:29.641Z,59.80
2019-04-27T05:08:33.285Z,59.70
2019-04-27T05:11:36.994Z,59.70
2019-04-27T05:14:40.689Z,59.40
2019-04-27T05:17:44.413Z,59.30
2019-04-27T05:20:59.324Z,59.30
2019-04-27T05:24:03.397Z,59.90
2019-04-27T05:27:09.094Z,60.10
2019-04-27T05:30:12.997Z,59.60
2019-04-27T05:33:18.489Z,60.20
2019-04-27T05:36:22.335Z,59.80
2019-04-27T05:39:26.321Z,60.30
2019-04-27T05:42:30.111Z,60.70
2019-04-27T05:46:35.688Z,60.20
2019-04-27T05:49:46.412Z,60.50
2019-04-27T05:52:50.101Z,60.20
2019-04-27T05:55:53.854Z,59.20
2019-04-27T05:59:00.300Z,58.00
2019-04-27T06:02:03.891Z,57.40
2019-04-27T06:05:08.924Z,56.30
2019-04-27T06:08:12.647Z,55.20
2019-04-27T06:11:16.404Z,55.10
2019-04-27T06:14:20.073Z,55.60
2019-04-27T06:17:23.796Z,55.80
2019-04-27T06:20:28.593Z,54.00
2019-04-27T06:23:32.458Z,53.30
2019-04-27T06:26:36.186Z,53.30
2019-04-27T06:29:40.886Z,52.20
2019-04-27T06:32:44.642Z,51.90
2019-04-27T06:35:49.569Z,51.50
2019-04-27T06:38:53.622Z,52.10
2019-04-27T06:41:59.036Z,51.40
2019-04-27T06:45:04.114Z,49.80
2019-04-27T06:48:09.631Z,51.00
2019-04-27T06:51:13.425Z,50.00
2019-04-27T06:54:17.182Z,51.40
2019-04-27T06:57:20.905Z,52.20
2019-04-27T07:00:24.831Z,52.80
2019-04-27T07:03:29.061Z,53.00
2019-04-27T07:06:32.838Z,54.20
2019-04-27T07:09:36.618Z,52.30
2019-04-27T07:12:41.105Z,51.80
2019-04-27T07:15:45.281Z,52.60
2019-04-27T07:18:50.452Z,51.50
2019-04-27T07:21:54.262Z,50.60
2019-04-27T07:24:59.040Z,51.10
2019-04-27T07:28:03.419Z,50.70
2019-04-27T07:31:07.110Z,50.00
2019-04-27T07:34:10.788Z,49.40
2019-04-27T07:37:14.782Z,50.00
2019-04-27T07:40:18.881Z,48.80
2019-04-27T07:43:31.560Z,47.80
2019-04-27T07:46:35.242Z,48.00
2019-04-27T07:49:39.139Z,48.50
2019-04-27T07:52:43.018Z,47.60
2019-04-27T07:55:46.908Z,47.10
2019-04-27T07:58:50.631Z,46.50
2019-04-27T08:01:54.333Z,46.40
2019-04-27T08:04:59.570Z,46.60
2019-04-27T08:08:03.566Z,46.20
2019-04-27T08:11:08.874Z,47.30
2019-04-27T08:14:12.687Z,46.50
2019-04-27T08:17:16.449Z,46.10
2019-04-27T08:20:21.213Z,46.70
2019-04-27T08:23:25.294Z,47.50
2019-04-27T08:26:35.543Z,48.00
2019-04-27T08:29:48.766Z,48.30
2019-04-27T08:32:52.951Z,47.90
2019-04-27T08:35:56.709Z,47.80
2019-04-27T08:39:00.777Z,47.90
2019-04-27T08:42:04.803Z,47.10
2019-04-27T08:45:09.494Z,46.30
2019-04-27T08:48:13.303Z,45.30
2019-04-27T08:51:17.023Z,44.20
2019-04-27T08:54:20.901Z,44.10
2019-04-27T08:57:24.802Z,43.70
2019-04-27T09:00:29.144Z,41.00
2019-04-27T09:03:33.040Z,40.50
2019-04-27T09:06:39.948Z,40.40
2019-04-27T09:09:46.138Z,40.60
2019-04-27T09:12:59.169Z,39.80
2019-04-27T09:16:18.585Z,36.60
2019-04-27T09:19:29.221Z,36.70
2019-04-27T09:22:33.230Z,36.60
2019-04-27T09:25:36.883Z,36.00
2019-04-27T09:28:41.532Z,37.90
2019-04-27T09:31:45.264Z,35.50
2019-04-27T09:34:49.225Z,34.90
2019-04-27T09:37:53.355Z,33.80
2019-04-27T09:40:58.100Z,33.00
2019-04-27T09:44:02.570Z,33.30
2019-04-27T09:47:06.678Z,32.80
2019-04-27T09:50:10.515Z,33.10
2019-04-27T09:53:15.789Z,31.50
2019-04-27T09:56:20.194Z,32.40
2019-04-27T09:59:24.132Z,32.50
2019-04-27T10:02:27.814Z,33.00
2019-04-27T10:05:31.498Z,30.40
2019-04-27T10:08:36.713Z,32.00
2019-04-27T10:11:40.593Z,30.00
2019-04-27T10:14:45.446Z,29.50
2019-04-27T10:17:49.733Z,29.40
2019-04-27T10:20:59.848Z,28.90
2019-04-27T10:23:59.112Z,27.50
2019-04-27T10:27:02.893Z,27.50
2019-04-27T10:30:08.361Z,29.00
2019-04-27T10:33:12.373Z,28.80
2019-04-27T10:36:18.962Z,28.80
2019-04-27T10:39:22.925Z,30.00
2019-04-27T10:42:27.189Z,28.90
2019-04-27T10:45:30.956Z,27.60
2019-04-27T10:48:36.711Z,27.40
2019-04-27T10:51:40.493Z,28.10
2019-04-27T10:54:44.178Z,27.60
2019-04-27T10:57:48.343Z,27.10
2019-04-27T11:00:54.130Z,26.60
2019-04-27T11:04:05.998Z,27.10
2019-04-27T11:07:11.926Z,25.60
2019-04-27T11:10:16.666Z,25.50
2019-04-27T11:13:20.367Z,26.30
2019-04-27T11:16:24.036Z,25.40
2019-04-27T11:19:27.817Z,24.80
2019-04-27T11:22:31.685Z,25.20
2019-04-27T11:25:36.508Z,24.30
2019-04-27T11:28:42.670Z,22.90
2019-04-27T11:31:46.575Z,23.00
2019-04-27T11:35:06.013Z,24.50
2019-04-27T11:38:10.011Z,24.40
2019-04-27T11:41:13.729Z,24.10
2019-04-27T11:44:17.479Z,23.10
2019-04-27T11:47:21.138Z,23.30
2019-04-27T11:50:25.605Z,22.90
2019-04-27T11:53:29.597Z,24.20
2019-04-27T11:56:33.325Z,23.70
2019-04-27T11:59:37.062Z,22.40
2019-04-27T12:02:40.983Z,22.50
2019-04-27T12:05:46.367Z,21.60
2019-04-27T12:08:50.273Z,22.20
2019-04-27T12:11:58.843Z,23.50
2019-04-27T12:14:59.609Z,23.70
2019-04-27T12:18:03.399Z,24.50
2019-04-27T12:21:07.145Z,24.30
2019-04-27T12:24:10.956Z,23.30
2019-04-27T12:27:42.821Z,23.00
2019-04-27T12:30:59.210Z,23.90
2019-04-27T12:34:03.039Z,23.70
2019-04-27T12:37:07.764Z,23.00
2019-04-27T12:40:11.630Z,22.80
2019-04-27T12:43:16.265Z,21.40
2019-04-27T12:46:20.957Z,21.50
2019-04-27T12:49:26.157Z,21.20
2019-04-27T12:52:29.960Z,22.40
2019-04-27T12:55:49.198Z,21.90
2019-04-27T12:58:57.058Z,22.60
2019-04-27T13:02:00.814Z,22.30
2019-04-27T13:05:05.798Z,23.30
2019-04-27T13:08:09.562Z,24.80
2019-04-27T13:11:13.260Z,24.40
2019-04-27T13:14:16.931Z,24.80
2019-04-27T13:17:20.687Z,24.80
2019-04-27T13:20:25.648Z,25.90
2019-04-27T13:23:29.995Z,25.90
2019-04-27T13:26:34.110Z,26.80
2019-04-27T13:29:38.411Z,25.70
2019-04-27T13:32:42.313Z,26.70
2019-04-27T13:35:46.062Z,26.20
2019-04-27T13:38:49.753Z,26.00
2019-04-27T13:41:53.641Z,25.90
2019-04-27T13:44:58.670Z,26.90
2019-04-27T13:48:27.933Z,25.60
2019-04-27T13:51:52.379Z,25.30
2019-04-27T13:54:56.137Z,25.90
2019-04-27T13:57:59.862Z,27.10
2019-04-27T14:01:03.573Z,25.50
2019-04-27T14:04:07.702Z,25.70
2019-04-27T14:07:11.410Z,26.00
2019-04-27T14:10:15.505Z,25.60
2019-04-27T14:13:19.814Z,25.50
2019-04-27T14:16:23.554Z,25.10
2019-04-27T14:19:28.272Z,24.80
2019-04-27T14:22:32.135Z,24.10
2019-04-27T14:25:36.075Z,23.60
2019-04-27T14:28:39.829Z,23.40
2019-04-27T14:31:43.616Z,23.90
2019-04-27T14:34:50.044Z,22.30
2019-04-27T14:37:53.664Z,23.30
2019-04-27T14:40:59.362Z,23.20
2019-04-27T14:44:07.997Z,22.40
2019-04-27T14:47:09.854Z,21.50
2019-04-27T14:50:14.197Z,21.80
2019-04-27T14:53:18.206Z,21.50
2019-04-27T14:56:24.787Z,21.00
2019-04-27T14:59:27.927Z,21.30
2019-04-27T15:02:31.922Z,21.80
2019-04-27T15:05:35.797Z,20.90
2019-04-27T15:08:42.635Z,20.80
2019-04-27T15:11:45.146Z,20.60
2019-04-27T15:14:53.389Z,20.50
2019-04-27T15:17:57.511Z,20.00
2019-04-27T15:21:02.578Z,20.40
2019-04-27T15:24:10.000Z,20.50
2019-04-27T15:27:13.997Z,20.60
2019-04-27T15:30:27.180Z,20.80
2019-04-27T15:33:51.409Z,20.20
2019-04-27T15:37:07.967Z,19.30
2019-04-27T15:40:29.022Z,20.80
2019-04-27T15:43:35.425Z,19.70
2019-04-27T15:46:39.314Z,19.60
2019-04-27T15:49:55.418Z,19.70
2019-04-27T15:53:03.010Z,20.40
2019-04-27T15:56:04.773Z,20.90
2019-04-27T15:59:08.766Z,20.30
2019-04-27T16:02:15.555Z,21.90
2019-04-27T16:05:19.156Z,22.00
2019-04-27T16:08:23.071Z,21.70
2019-04-27T16:11:26.934Z,21.50
2019-04-27T16:14:31.401Z,21.70
2019-04-27T16:17:35.125Z,21.50
2019-04-27T16:20:38.890Z,22.60
2019-04-27T16:23:43.120Z,22.50
2019-04-27T16:26:54.643Z,22.30
2019-04-27T16:29:53.503Z,22.50
2019-04-27T16:32:58.352Z,22.60
2019-04-27T16:36:07.070Z,22.90
2019-04-27T16:39:10.028Z,22.70
2019-04-27T16:42:14.376Z,22.50
2019-04-27T16:45:22.953Z,23.10
2019-04-27T16:48:28.011Z,23.40
2019-04-27T16:51:36.806Z,24.30
2019-04-27T16:54:35.681Z,24.80
2019-04-27T16:57:40.086Z,25.10
2019-04-27T17:00:44.105Z,24.80
2019-04-27T17:03:48.537Z,26.20
2019-04-27T17:06:52.457Z,25.40
2019-04-27T17:09:59.435Z,25.30
2019-04-27T17:13:06.153Z,25.40
2019-04-27T17:16:33.764Z,26.20
2019-04-27T17:19:53.545Z,26.60
2019-04-27T17:22:58.305Z,26.10
2019-04-27T17:26:06.299Z,26.30
2019-04-27T17:29:16.812Z,26.90
2019-04-27T17:32:30.383Z,27.30
2019-04-27T17:35:34.660Z,27.40
2019-04-27T17:38:42.642Z,27.70
2019-04-27T17:41:49.277Z,28.40
2019-04-27T17:44:53.080Z,28.80
2019-04-27T17:48:00.406Z,29.10
2019-04-27T17:51:03.550Z,29.10
2019-04-27T17:54:07.985Z,29.30
2019-04-27T17:57:13.576Z,30.30
2019-04-27T18:00:18.845Z,30.60
2019-04-27T18:03:22.765Z,30.50
2019-04-27T18:06:29.574Z,30.40
2019-04-27T18:09:33.508Z,31.10
2019-04-27T18:12:37.810Z,31.80
2019-04-27T18:15:41.701Z,32.10
2019-04-27T18:19:08.040Z,32.10
2019-04-27T18:22:07.010Z,32.40
2019-04-27T18:25:11.224Z,33.20
2019-04-27T18:28:19.144Z,33.50
2019-04-27T18:31:22.917Z,33.90
2019-04-27T18:34:28.500Z,34.00
2019-04-27T18:37:32.499Z,34.70
2019-04-27T18:40:38.205Z,34.70
2019-04-27T18:43:50.845Z,34.50
2019-04-27T18:46:48.895Z,35.00
2019-04-27T18:50:14.553Z,35.70
2019-04-27T18:53:22.938Z,35.90
2019-04-27T18:56:23.263Z,36.30
2019-04-27T18:59:28.726Z,37.10
2019-04-27T19:02:32.914Z,36.20
2019-04-27T19:05:40.412Z,36.30
2019-04-27T19:08:43.189Z,36.40
2019-04-27T19:11:54.149Z,37.50
2019-04-27T19:14:53.486Z,37.20
2019-04-27T19:17:58.130Z,35.00
2019-04-27T19:21:01.994Z,34.40
2019-04-27T19:24:05.854Z,32.90
2019-04-27T19:27:27.884Z,33.20
2019-04-27T19:30:35.667Z,33.70
2019-04-27T19:33:39.668Z,34.00
2019-04-27T19:36:43.473Z,33.70
2019-04-27T19:39:47.890Z,33.70
2019-04-27T19:42:52.993Z,34.30
2019-04-27T19:45:58.285Z,34.60
2019-04-27T19:49:02.298Z,34.70
2019-04-27T19:52:06.115Z,34.80
2019-04-27T19:55:10.041Z,35.10
2019-04-27T19:58:15.297Z,34.80
2019-04-27T20:01:23.718Z,35.20
2019-04-27T20:04:30.748Z,35.60
2019-04-27T20:07:35.017Z,35.80
2019-04-27T20:10:39.072Z,36.00
2019-04-27T20:13:42.795Z,36.00
2019-04-27T20:16:46.919Z,36.30
2019-04-27T20:19:51.624Z,36.20
2019-04-27T20:22:55.656Z,35.70
2019-04-27T20:25:59.425Z,35.10
2019-04-27T20:29:03.253Z,35.60
2019-04-27T20:32:07.042Z,35.40
2019-04-27T20:35:11.801Z,35.50
2019-04-27T20:38:16.098Z,35.70
2019-04-27T20:41:21.720Z,35.50
2019-04-27T20:44:25.474Z,35.40
2019-04-27T20:47:30.310Z,35.60
2019-04-27T20:50:34.311Z,35.70
2019-04-27T20:53:44.217Z,35.90
2019-04-27T20:56:48.206Z,36.40
2019-04-27T20:59:52.330Z,37.20
2019-04-27T21:03:03.556Z,37.20
2019-04-27T21:06:26.597Z,37.50
2019-04-27T21:09:32.243Z,38.10
2019-04-27T21:12:36.635Z,38.00
2019-04-27T21:15:41.940Z,38.30
2019-04-27T21:18:45.854Z,39.00
2019-04-27T21:21:51.054Z,38.80
2019-04-27T21:24:55.025Z,39.00
2019-04-27T21:27:58.764Z,39.20
2019-04-27T21:31:02.470Z,39.30
2019-04-27T21:34:07.071Z,39.30
2019-04-27T21:37:11.107Z,39.60
2019-04-27T21:40:21.371Z,40.20
2019-04-27T21:43:25.567Z,40.30
2019-04-27T21:46:31.307Z,40.40
2019-04-27T21:49:34.881Z,40.70
2019-04-27T21:52:41.701Z,41.10
2019-04-27T21:55:47.239Z,41.50
2019-04-27T21:58:51.239Z,41.40
2019-04-27T22:01:57.365Z,41.60
2019-04-27T22:05:01.048Z,42.10
2019-04-27T22:08:04.780Z,42.10
2019-04-27T22:11:08.594Z,42.70
2019-04-27T22:14:12.277Z,43.10
2019-04-27T22:17:16.189Z,43.00
2019-04-27T22:20:20.787Z,43.10
2019-04-27T22:23:33.637Z,43.70
2019-04-27T22:26:37.337Z,43.20
2019-04-27T22:29:41.347Z,42.70
2019-04-27T22:32:45.080Z,43.10
2019-04-27T22:35:48.740Z,43.30
2019-04-27T22:38:53.350Z,43.80
2019-04-27T22:42:05.835Z,44.30
2019-04-27T22:45:17.073Z,44.90
2019-04-27T22:48:20.847Z,45.10
2019-04-27T22:51:24.746Z,45.80
2019-04-27T22:54:28.450Z,45.60
2019-04-27T22:57:38.425Z,46.30
2019-04-27T23:00:57.554Z,46.40
2019-04-27T23:04:02.096Z,46.90
2019-04-27T23:07:06.151Z,47.40
2019-04-27T23:10:11.258Z,47.40
2019-04-27T23:13:15.128Z,47.90
2019-04-27T23:16:21.835Z,47.80
2019-04-27T23:19:26.099Z,47.60
2019-04-27T23:22:31.412Z,48.30
2019-04-27T23:25:35.567Z,48.20
2019-04-27T23:28:41.228Z,48.20
2019-04-27T23:32:11.569Z,48.70
2019-04-27T23:35:15.304Z,48.60
2019-04-27T23:38:20.560Z,49.00
2019-04-27T23:41:24.662Z,49.00
2019-04-27T23:44:28.354Z,48.90
2019-04-27T23:47:32.483Z,49.40
2019-04-27T23:50:38.134Z,49.40
2019-04-27T23:53:41.896Z,49.80
2019-04-27T23:56:45.960Z,49.60
2019-04-27T23:59:51.387Z,50.30
